Robert Franco — WDG7687 — position and weather

sailwx.info

Track history (hours):
 
Tides and Currents Weather Stations Pressure Air Temp Water Temp Dewpoint Dewpoint Depression Visibility Wind Speed Wind Dir Waves Ship Positions

Robert Franco

Owner: Harley Marine Services, Inc, Seattle, WA. More information available from US FCC via Universal Licensing System and Coast Guard Vessel Documentation Center.

Last reported at 2018-Jun-18 11:29 UTC. Time now 2018-Jun-18 11:34 UTC.
Position N 33°42' W 118°15'.

Length 30 m; draft 5.7 m.

Type: Tow > 200 m length. MMSI: 367569830.

Date/timePositionNaut miles runAvg speedWind from/ knotsBaromVisibWave heightAir tempDewpointWater temp
2018-Jun-18 11:29N 33°42' W 118°15'2 0.8
2018-Jun-18 09:29N 33°44' W 118°16'0 0.0
2018-Jun-18 08:59N 33°44' W 118°16'0 0.0
2018-Jun-18 08:27N 33°44' W 118°16'0 0.0
2018-Jun-18 06:41N 33°44' W 118°16'0 0.0
2018-Jun-18 04:44N 33°44' W 118°16'1 4.3
2018-Jun-18 04:27N 33°43' W 118°15'3 5.2
2018-Jun-18 03:53N 33°45' W 118°12'3 6.1
2018-Jun-18 03:24N 33°43' W 118°15'1 3.0
2018-Jun-18 03:00N 33°44' W 118°16'0 0.0
2018-Jun-18 02:30N 33°44' W 118°16'0 0.0
2018-Jun-18 02:00N 33°44' W 118°16'0 0.0
2018-Jun-18 01:30N 33°44' W 118°16'0 0.0
2018-Jun-18 01:00N 33°44' W 118°16'0 0.0
2018-Jun-18 00:30N 33°44' W 118°16'0 0.0
2018-Jun-18 00:00N 33°44' W 118°16'0 0.0
2018-Jun-17 23:29N 33°44' W 118°16'0 0.0
2018-Jun-17 22:58N 33°44' W 118°16'1 2.7
2018-Jun-17 22:30N 33°43' W 118°15'3 5.9
2018-Jun-17 22:00N 33°44' W 118°12'0 0.5
2018-Jun-17 21:30N 33°44' W 118°11'3 4.4
2018-Jun-17 20:49N 33°41' W 118°11'2 4.9
2018-Jun-17 20:29N 33°42' W 118°13'3 6.6
2018-Jun-17 20:00N 33°44' W 118°16'0 0.0
2018-Jun-17 19:28N 33°44' W 118°16'0 0.0
2018-Jun-17 19:00N 33°44' W 118°16'0 0.0
2018-Jun-17 18:20N 33°44' W 118°16'0 0.0
2018-Jun-17 18:00N 33°44' W 118°16'0 0.0
2018-Jun-17 17:26N 33°44' W 118°16'0 0.0
2018-Jun-17 17:00N 33°44' W 118°16'1 1.7
2018-Jun-17 16:29N 33°43' W 118°16'2 4.7
2018-Jun-17 16:00N 33°44' W 118°13'2 3.4
2018-Jun-17 15:29N 33°46' W 118°13'0 1.0
2018-Jun-17 15:00N 33°46' W 118°13'0 0.1
2018-Jun-17 14:30N 33°46' W 118°13'2 3.8
2018-Jun-17 14:00N 33°46' W 118°16'0 0.8
2018-Jun-17 13:30N 33°46' W 118°15'0 0.1
2018-Jun-17 13:00N 33°46' W 118°15'2 3.1
2018-Jun-17 12:30N 33°45' W 118°16'1 0.1
2018-Jun-17 05:26N 33°44' W 118°16'1 2.3
2018-Jun-17 04:58N 33°45' W 118°16'1 2.0
2018-Jun-17 04:27N 33°46' W 118°16'2 3.5
2018-Jun-17 03:56N 33°44' W 118°16'2 4.3
2018-Jun-17 03:28N 33°44' W 118°13'1 3.2
2018-Jun-17 03:00N 33°45' W 118°13'2 3.5
2018-Jun-17 02:29N 33°44' W 118°12'3 6.3
2018-Jun-17 02:01N 33°41' W 118°10'3 5.7
2018-Jun-17 01:30N 33°44' W 118°12'2 3.1
2018-Jun-17 00:57N 33°45' W 118°13'1 1.2
2018-Jun-17 00:30N 33°45' W 118°13'1 2.8
2018-Jun-17 00:00N 33°44' W 118°13'2 3.1
2018-Jun-16 23:26N 33°44' W 118°16'0 0.0
2018-Jun-16 23:00N 33°44' W 118°16'0 0.0
2018-Jun-16 22:29N 33°44' W 118°16'0 0.0
2018-Jun-16 22:00N 33°44' W 118°16'0 0.0
2018-Jun-16 20:59N 33°44' W 118°16'2 2.7
2018-Jun-16 20:19N 33°44' W 118°13'2 6.0
2018-Jun-16 19:59N 33°43' W 118°16'1 1.3
2018-Jun-16 19:30N 33°44' W 118°16'0 0.0
2018-Jun-16 19:00N 33°44' W 118°16'0 0.0
2018-Jun-16 18:30N 33°44' W 118°16'0 0.0
2018-Jun-16 18:00N 33°44' W 118°16'0 0.0
2018-Jun-16 17:28N 33°44' W 118°16'0 0.0
2018-Jun-16 16:59N 33°44' W 118°16'0 0.0
2018-Jun-16 16:29N 33°44' W 118°16'0 0.0
2018-Jun-16 16:00N 33°44' W 118°16'0 0.0
2018-Jun-16 15:23N 33°44' W 118°16'0 0.0
2018-Jun-16 14:53N 33°44' W 118°16'1 2.8
2018-Jun-16 14:29N 33°43' W 118°15'2 3.5
2018-Jun-16 13:57N 33°44' W 118°13'2 4.6
2018-Jun-16 13:30N 33°44' W 118°16'1 0.9
2018-Jun-16 12:56N 33°43' W 118°16'1 1.8
2018-Jun-16 12:30N 33°44' W 118°15'1 2.8
2018-Jun-16 12:00N 33°45' W 118°16'1 0.9
2018-Jun-16 11:25N 33°45' W 118°16'0 0.6
2018-Jun-16 11:00N 33°45' W 118°16'0 0.0
2018-Jun-16 10:30N 33°45' W 118°16'1 1.0
2018-Jun-16 09:26N 33°44' W 118°17'2 3.7
2018-Jun-16 08:59N 33°46' W 118°16'1 2.0
2018-Jun-16 08:30N 33°45' W 118°16'1 0.8
2018-Jun-16 07:04N 33°44' W 118°16'0 0.1
2018-Jun-16 06:58N 33°44' W 118°16'1 2.4
2018-Jun-16 06:29N 33°45' W 118°16'1 2.3
2018-Jun-16 06:00N 33°46' W 118°16'2 0.7
2018-Jun-16 03:11N 33°44' W 118°16'0 0.0
2018-Jun-16 03:00N 33°44' W 118°16'0 0.0
2018-Jun-16 02:30N 33°44' W 118°16'0 0.0
2018-Jun-16 01:59N 33°44' W 118°16'0 0.0
2018-Jun-16 01:29N 33°44' W 118°16'0 0.0
2018-Jun-16 01:00N 33°44' W 118°16'0 0.0
2018-Jun-16 00:30N 33°44' W 118°16'0 0.0
2018-Jun-16 00:00N 33°44' W 118°16'0 0.0
2018-Jun-15 23:23N 33°44' W 118°16'0 0.0
2018-Jun-15 23:00N 33°44' W 118°16'0 0.0
2018-Jun-15 22:08N 33°44' W 118°16'0 0.0
2018-Jun-15 21:58N 33°44' W 118°16'0 0.0
2018-Jun-15 21:30N 33°44' W 118°16'0 0.0
2018-Jun-15 20:58N 33°44' W 118°16'0 0.0
2018-Jun-15 20:30N 33°44' W 118°16'0 0.0
2018-Jun-15 19:57N 33°44' W 118°16'0 0.0
2018-Jun-15 19:29N 33°44' W 118°16'0 0.0
2018-Jun-15 19:00N 33°44' W 118°16'0 0.0
2018-Jun-15 18:30N 33°44' W 118°16'0 0.0
2018-Jun-15 17:53N 33°44' W 118°16'0 0.0
2018-Jun-15 17:29N 33°44' W 118°16'0 0.0
2018-Jun-15 17:00N 33°44' W 118°16'0 0.0
2018-Jun-15 14:55N 33°44' W 118°16'0 0.0
2018-Jun-15 14:30N 33°44' W 118°16'0 0.0
2018-Jun-15 14:00N 33°44' W 118°16'0 0.0
2018-Jun-15 13:30N 33°44' W 118°16'1 2.0
2018-Jun-15 12:57N 33°45' W 118°16'0 1.0
2018-Jun-15 12:30N 33°45' W 118°16'0 0.1
2018-Jun-15 12:00N 33°45' W 118°16'1 0.5
2018-Jun-15 08:54N 33°44' W 118°16'0 0.0
2018-Jun-15 03:20N 33°44' W 118°16'0 0.0
2018-Jun-15 02:54N 33°44' W 118°16'0 0.0
2018-Jun-15 02:30N 33°44' W 118°16'0 0.0
2018-Jun-15 02:00N 33°44' W 118°16'0 0.0
2018-Jun-15 01:30N 33°44' W 118°16'0 0.0
2018-Jun-15 01:00N 33°44' W 118°16'0 0.2
2018-Jun-15 00:24N 33°44' W 118°16'1 2.7
2018-Jun-15 00:00N 33°45' W 118°17'1 2.7
2018-Jun-14 23:30N 33°46' W 118°16'2 0.1
2018-Jun-14 05:09N 33°44' W 118°16'0 0.0
2018-Jun-14 04:40N 33°44' W 118°16'1 3.0
2018-Jun-14 04:20N 33°43' W 118°15'3 9.7
2018-Jun-14 04:00N 33°44' W 118°11'0 0.8
2018-Jun-14 03:31N 33°44' W 118°12'2 4.5
2018-Jun-14 03:00N 33°46' W 118°13'1 1.3
2018-Jun-14 02:28N 33°46' W 118°13'0 0.0
2018-Jun-14 02:00N 33°46' W 118°13'2 4.3
2018-Jun-14 01:30N 33°45' W 118°12'1 1.3
2018-Jun-14 00:57N 33°44' W 118°13'3 6.8
2018-Jun-14 00:29N 33°44' W 118°16'2 4.0
2018-Jun-14 00:00N 33°46' W 118°16'0 0.0
2018-Jun-13 23:30N 33°46' W 118°16'0 0.0
2018-Jun-13 23:00N 33°46' W 118°16'1 2.8
2018-Jun-13 22:30N 33°44' W 118°17'3 5.9
2018-Jun-13 21:58N 33°44' W 118°13'0 1.0
2018-Jun-13 21:30N 33°44' W 118°12'4 5.5
2018-Jun-13 20:52N 33°44' W 118°17'1 3.7
2018-Jun-13 20:30N 33°46' W 118°16'2 3.4
2018-Jun-13 20:00N 33°44' W 118°16'0 0.0
2018-Jun-13 18:08N 33°44' W 118°16'0 0.1
2018-Jun-13 18:00N 33°44' W 118°16'0 0.0
2018-Jun-13 17:17N 33°44' W 118°16'0 0.0
2018-Jun-13 16:45N 33°44' W 118°16'0 0.0
2018-Jun-13 16:29N 33°44' W 118°16'0 0.0
2018-Jun-13 15:56N 33°44' W 118°16'0 0.0
2018-Jun-13 15:30N 33°44' W 118°16'0 0.0
2018-Jun-13 15:00N 33°44' W 118°16'0 0.0
2018-Jun-13 14:30N 33°44' W 118°16'2 3.3
2018-Jun-13 13:52N 33°44' W 118°13'1 1.8
2018-Jun-13 13:16N 33°45' W 118°13'1 2.9
2018-Jun-13 13:00N 33°45' W 118°13'1 2.7
2018-Jun-13 12:29N 33°44' W 118°12'0 0.2
2018-Jun-13 12:00N 33°44' W 118°12'1 1.7
2018-Jun-13 11:30N 33°44' W 118°12'2 4.2
2018-Jun-13 11:00N 33°46' W 118°13'0 0.6
2018-Jun-13 10:30N 33°46' W 118°13'0 0.1
2018-Jun-13 09:54N 33°46' W 118°13'0 0.0
2018-Jun-13 09:30N 33°46' W 118°13'0 0.0
2018-Jun-13 08:57N 33°46' W 118°13'0 0.0
2018-Jun-13 08:30N 33°46' W 118°13'0 0.0
2018-Jun-13 08:00N 33°46' W 118°13'4 2.2
2018-Jun-13 06:14N 33°43' W 118°15'3 9.2
2018-Jun-13 05:55N 33°45' W 118°13'0 0.0
2018-Jun-13 05:29N 33°45' W 118°13'1 1.4
2018-Jun-13 05:00N 33°45' W 118°13'1 1.6
2018-Jun-13 04:29N 33°44' W 118°13'2 4.3
2018-Jun-13 03:59N 33°44' W 118°10'2 3.1
2018-Jun-13 03:30N 33°44' W 118°12'3 5.3
2018-Jun-13 03:00N 33°46' W 118°13'1 1.3
2018-Jun-13 02:30N 33°47' W 118°13'0 0.7
2018-Jun-13 02:00N 33°46' W 118°13'0 0.0
2018-Jun-13 01:30N 33°46' W 118°13'0 0.1
2018-Jun-13 01:00N 33°46' W 118°13'1 2.1
2018-Jun-13 00:30N 33°45' W 118°13'2 4.6
2018-Jun-13 00:00N 33°44' W 118°11'3 6.4
2018-Jun-12 23:30N 33°46' W 118°13'0 0.0
2018-Jun-12 23:00N 33°46' W 118°13'1 1.6
2018-Jun-12 22:30N 33°46' W 118°13'2 3.6
2018-Jun-12 22:00N 33°44' W 118°12'3 5.8
2018-Jun-12 21:30N 33°42' W 118°10'0 0.4
2018-Jun-12 21:00N 33°42' W 118°10'2 4.0
2018-Jun-12 20:30N 33°42' W 118°12'4 6.9
2018-Jun-12 19:59N 33°44' W 118°16'0 0.0
2018-Jun-12 17:13N 33°44' W 118°16'0 0.1
2018-Jun-12 16:54N 33°44' W 118°16'3 6.5
2018-Jun-12 16:30N 33°44' W 118°12'1 0.8
2018-Jun-12 15:48N 33°45' W 118°13'1 1.9
2018-Jun-12 15:18N 33°44' W 118°14'1 3.1
2018-Jun-12 15:00N 33°45' W 118°13'0 0.0
2018-Jun-12 14:30N 33°45' W 118°13'0 0.0
2018-Jun-12 14:00N 33°45' W 118°13'0 0.0
2018-Jun-12 13:29N 33°45' W 118°13'3 5.4
2018-Jun-12 12:54N 33°44' W 118°16'2 5.0
2018-Jun-12 12:30N 33°46' W 118°16'0 0.4
2018-Jun-12 12:00N 33°45' W 118°17'2 0.3
2018-Jun-12 05:00N 33°44' W 118°16'0 0.0
2018-Jun-12 03:50N 33°44' W 118°16'0 0.0
2018-Jun-12 03:28N 33°44' W 118°16'0 0.0
2018-Jun-12 03:00N 33°44' W 118°16'1 1.1
2018-Jun-12 02:22N 33°44' W 118°17'1 3.1
2018-Jun-12 02:00N 33°45' W 118°16'0 0.2
2018-Jun-12 01:30N 33°45' W 118°16'0 0.4
2018-Jun-12 00:59N 33°45' W 118°16'0 0.0
2018-Jun-12 00:30N 33°45' W 118°16'0 0.0
2018-Jun-11 23:59N 33°45' W 118°16'0 0.0
2018-Jun-11 23:25N 33°45' W 118°16'0 0.2
2018-Jun-11 23:00N 33°45' W 118°16'3 5.4
2018-Jun-11 22:29N 33°43' W 118°15'3 6.0
2018-Jun-11 21:55N 33°46' W 118°13'1 2.8
2018-Jun-11 21:30N 33°45' W 118°13'2 4.7
2018-Jun-11 21:00N 33°44' W 118°16'0 0.0
2018-Jun-11 20:30N 33°44' W 118°16'0 0.0
2018-Jun-11 20:00N 33°44' W 118°16'0 0.0
2018-Jun-11 19:30N 33°44' W 118°16'0 0.0
2018-Jun-11 19:00N 33°44' W 118°16'0 0.0
2018-Jun-11 18:30N 33°44' W 118°16'0 0.0
2018-Jun-11 18:00N 33°44' W 118°16'0 0.0
2018-Jun-11 17:30N 33°44' W 118°16'0 0.0
2018-Jun-11 17:00N 33°44' W 118°16'2 3.9
2018-Jun-11 16:27N 33°44' W 118°13'2 3.4
2018-Jun-11 16:00N 33°45' W 118°13'1 2.8
2018-Jun-11 15:30N 33°46' W 118°13'0 0.1
2018-Jun-11 15:00N 33°46' W 118°13'3 5.6
2018-Jun-11 14:30N 33°46' W 118°16'0 0.8
2018-Jun-11 14:00N 33°45' W 118°17'1 2.9
2018-Jun-11 13:30N 33°44' W 118°17'0 0.1
2018-Jun-11 11:27N 33°44' W 118°17'2 3.7
2018-Jun-11 11:00N 33°46' W 118°16'0 0.1
2018-Jun-11 09:44N 33°46' W 118°16'1 0.7
2018-Jun-11 08:50N 33°45' W 118°16'2 4.3
2018-Jun-11 08:28N 33°44' W 118°16'1 0.4
2018-Jun-11 06:55N 33°44' W 118°16'1 0.5
2018-Jun-11 05:22N 33°43' W 118°16'3 8.5
2018-Jun-11 05:00N 33°45' W 118°12'1 1.5
2018-Jun-11 04:30N 33°44' W 118°13'3 3.8
2018-Jun-11 03:49N 33°44' W 118°16'0 0.0
2018-Jun-11 03:29N 33°44' W 118°16'0 0.1
2018-Jun-11 02:47N 33°44' W 118°16'1 1.9
2018-Jun-11 02:18N 33°44' W 118°17'1 4.6
2018-Jun-11 02:00N 33°45' W 118°16'0 0.0
2018-Jun-11 01:30N 33°45' W 118°16'1 2.3
2018-Jun-11 00:54N 33°46' W 118°14'1 3.3
2018-Jun-11 00:31N 33°45' W 118°13'0 0.9
2018-Jun-10 23:59N 33°45' W 118°13'0 0.7
2018-Jun-10 23:28N 33°45' W 118°13'0 0.0
2018-Jun-10 22:58N 33°45' W 118°13'0 0.0
2018-Jun-10 22:20N 33°45' W 118°13'0 0.0
2018-Jun-10 22:00N 33°45' W 118°13'1 1.9
2018-Jun-10 21:26N 33°44' W 118°13'2 0.5
2018-Jun-10 16:45N 33°44' W 118°16'1 2.2
2018-Jun-10 16:29N 33°43' W 118°16'3 5.4
2018-Jun-10 16:00N 33°46' W 118°16'1 2.5
2018-Jun-10 15:30N 33°45' W 118°16'1 2.3
2018-Jun-10 15:00N 33°44' W 118°16'1 1.3
2018-Jun-10 14:21N 33°44' W 118°17'1 1.1
2018-Jun-10 13:30N 33°45' W 118°16'3 0.7
2018-Jun-10 09:50N 33°45' W 118°13'0 0.0
2018-Jun-10 09:30N 33°45' W 118°13'0 0.0
2018-Jun-10 09:00N 33°45' W 118°13'0 0.0
2018-Jun-10 08:30N 33°45' W 118°13'0 0.0
2018-Jun-10 07:28N 33°45' W 118°13'3 1.8
2018-Jun-10 05:53N 33°45' W 118°16'0 0.6
2018-Jun-10 05:21N 33°45' W 118°16'0 1.1
2018-Jun-10 05:00N 33°46' W 118°16'2 1.0
2018-Jun-10 03:06N 33°44' W 118°16'0 0.0
2018-Jun-10 03:00N 33°44' W 118°16'2 3.7
2018-Jun-10 02:26N 33°43' W 118°13'3 6.5
2018-Jun-10 02:00N 33°44' W 118°10'5 5.8
2018-Jun-10 01:09N 33°43' W 118°16'0 1.4
2018-Jun-10 00:50N 33°44' W 118°16'1 2.8
2018-Jun-10 00:30N 33°44' W 118°17'2 3.3
2018-Jun-10 00:00N 33°46' W 118°16'0 0.5
2018-Jun-09 23:30N 33°46' W 118°16'0 0.0
2018-Jun-09 23:00N 33°46' W 118°16'0 0.0
2018-Jun-09 22:30N 33°46' W 118°16'0 0.0
2018-Jun-09 22:00N 33°46' W 118°16'1 1.3
2018-Jun-09 21:30N 33°45' W 118°16'0 0.7
2018-Jun-09 21:00N 33°45' W 118°16'1 0.5
2018-Jun-09 18:17N 33°44' W 118°16'0 0.0
2018-Jun-09 17:43N 33°44' W 118°16'0 0.0
2018-Jun-09 17:29N 33°44' W 118°16'0 0.0
2018-Jun-09 16:59N 33°44' W 118°16'0 0.3
2018-Jun-09 16:23N 33°44' W 118°15'1 3.6
2018-Jun-09 16:00N 33°45' W 118°16'1 2.1
2018-Jun-09 15:30N 33°46' W 118°16'2 1.2
2018-Jun-09 13:47N 33°46' W 118°13'3 1.4
2018-Jun-09 11:31N 33°45' W 118°16'0 5.6
2018-Jun-09 11:30N 33°45' W 118°16'1 0.1
2018-Jun-09 03:09N 33°44' W 118°16'0 0.0
2018-Jun-09 02:59N 33°44' W 118°16'0 0.0
2018-Jun-09 02:30N 33°44' W 118°16'0 0.0
2018-Jun-09 01:59N 33°44' W 118°16'0 0.0
2018-Jun-09 01:30N 33°44' W 118°16'0 0.0
2018-Jun-09 01:00N 33°44' W 118°16'0 0.0
2018-Jun-09 00:28N 33°44' W 118°16'0 0.0
2018-Jun-08 23:58N 33°44' W 118°16'1 1.7
2018-Jun-08 23:25N 33°44' W 118°17'1 3.4
2018-Jun-08 23:00N 33°46' W 118°17'2 1.5
2018-Jun-08 21:35N 33°44' W 118°16'0 0.1
2018-Jun-08 20:38N 33°44' W 118°16'0 0.0
2018-Jun-08 20:29N 33°44' W 118°16'0 0.0
2018-Jun-08 20:00N 33°44' W 118°16'0 0.0
2018-Jun-08 19:25N 33°44' W 118°16'0 0.0
2018-Jun-08 19:00N 33°44' W 118°16'0 0.0
2018-Jun-08 15:21N 33°44' W 118°16'0 0.0
2018-Jun-08 15:00N 33°44' W 118°16'0 0.0
2018-Jun-08 14:29N 33°44' W 118°16'0 0.0
2018-Jun-08 14:00N 33°44' W 118°16'0 0.0
2018-Jun-08 13:29N 33°44' W 118°16'0 0.0
2018-Jun-08 13:00N 33°44' W 118°16'  
Track history (hours):
 
Tides and Currents Weather Stations Pressure Air Temp Water Temp Dewpoint Dewpoint Depression Visibility Wind Speed Wind Dir Waves Ship Positions

Robert Franco

Owner: Harley Marine Services, Inc, Seattle, WA. More information available from US FCC via Universal Licensing System and Coast Guard Vessel Documentation Center.

Last reported at 2018-Jun-18 11:29 UTC. Time now 2018-Jun-18 11:34 UTC.
Position N 33°42' W 118°15'.

Length 30 m; draft 5.7 m.

Type: Tow > 200 m length. MMSI: 367569830.

Date/timePositionNaut miles runAvg speedWind from/ knotsBaromVisibWave heightAir tempDewpointWater temp
2018-Jun-18 11:29N 33°42' W 118°15'2 0.8
2018-Jun-18 09:29N 33°44' W 118°16'0 0.0
2018-Jun-18 08:59N 33°44' W 118°16'0 0.0
2018-Jun-18 08:27N 33°44' W 118°16'0 0.0
2018-Jun-18 06:41N 33°44' W 118°16'0 0.0
2018-Jun-18 04:44N 33°44' W 118°16'1 4.3
2018-Jun-18 04:27N 33°43' W 118°15'3 5.2
2018-Jun-18 03:53N 33°45' W 118°12'3 6.1
2018-Jun-18 03:24N 33°43' W 118°15'1 3.0
2018-Jun-18 03:00N 33°44' W 118°16'0 0.0
2018-Jun-18 02:30N 33°44' W 118°16'0 0.0
2018-Jun-18 02:00N 33°44' W 118°16'0 0.0
2018-Jun-18 01:30N 33°44' W 118°16'0 0.0
2018-Jun-18 01:00N 33°44' W 118°16'0 0.0
2018-Jun-18 00:30N 33°44' W 118°16'0 0.0
2018-Jun-18 00:00N 33°44' W 118°16'0 0.0
2018-Jun-17 23:29N 33°44' W 118°16'0 0.0
2018-Jun-17 22:58N 33°44' W 118°16'1 2.7
2018-Jun-17 22:30N 33°43' W 118°15'3 5.9
2018-Jun-17 22:00N 33°44' W 118°12'0 0.5
2018-Jun-17 21:30N 33°44' W 118°11'3 4.4
2018-Jun-17 20:49N 33°41' W 118°11'2 4.9
2018-Jun-17 20:29N 33°42' W 118°13'3 6.6
2018-Jun-17 20:00N 33°44' W 118°16'0 0.0
2018-Jun-17 19:28N 33°44' W 118°16'0 0.0
2018-Jun-17 19:00N 33°44' W 118°16'0 0.0
2018-Jun-17 18:20N 33°44' W 118°16'0 0.0
2018-Jun-17 18:00N 33°44' W 118°16'0 0.0
2018-Jun-17 17:26N 33°44' W 118°16'0 0.0
2018-Jun-17 17:00N 33°44' W 118°16'1 1.7
2018-Jun-17 16:29N 33°43' W 118°16'2 4.7
2018-Jun-17 16:00N 33°44' W 118°13'2 3.4
2018-Jun-17 15:29N 33°46' W 118°13'0 1.0
2018-Jun-17 15:00N 33°46' W 118°13'0 0.1
2018-Jun-17 14:30N 33°46' W 118°13'2 3.8
2018-Jun-17 14:00N 33°46' W 118°16'0 0.8
2018-Jun-17 13:30N 33°46' W 118°15'0 0.1
2018-Jun-17 13:00N 33°46' W 118°15'2 3.1
2018-Jun-17 12:30N 33°45' W 118°16'1 0.1
2018-Jun-17 05:26N 33°44' W 118°16'1 2.3
2018-Jun-17 04:58N 33°45' W 118°16'1 2.0
2018-Jun-17 04:27N 33°46' W 118°16'2 3.5
2018-Jun-17 03:56N 33°44' W 118°16'2 4.3
2018-Jun-17 03:28N 33°44' W 118°13'1 3.2
2018-Jun-17 03:00N 33°45' W 118°13'2 3.5
2018-Jun-17 02:29N 33°44' W 118°12'3 6.3
2018-Jun-17 02:01N 33°41' W 118°10'3 5.7
2018-Jun-17 01:30N 33°44' W 118°12'2 3.1
2018-Jun-17 00:57N 33°45' W 118°13'1 1.2
2018-Jun-17 00:30N 33°45' W 118°13'1 2.8
2018-Jun-17 00:00N 33°44' W 118°13'2 3.1
2018-Jun-16 23:26N 33°44' W 118°16'0 0.0
2018-Jun-16 23:00N 33°44' W 118°16'0 0.0
2018-Jun-16 22:29N 33°44' W 118°16'0 0.0
2018-Jun-16 22:00N 33°44' W 118°16'0 0.0
2018-Jun-16 20:59N 33°44' W 118°16'2 2.7
2018-Jun-16 20:19N 33°44' W 118°13'2 6.0
2018-Jun-16 19:59N 33°43' W 118°16'1 1.3
2018-Jun-16 19:30N 33°44' W 118°16'0 0.0
2018-Jun-16 19:00N 33°44' W 118°16'0 0.0
2018-Jun-16 18:30N 33°44' W 118°16'0 0.0
2018-Jun-16 18:00N 33°44' W 118°16'0 0.0
2018-Jun-16 17:28N 33°44' W 118°16'0 0.0
2018-Jun-16 16:59N 33°44' W 118°16'0 0.0
2018-Jun-16 16:29N 33°44' W 118°16'0 0.0
2018-Jun-16 16:00N 33°44' W 118°16'0 0.0
2018-Jun-16 15:23N 33°44' W 118°16'0 0.0
2018-Jun-16 14:53N 33°44' W 118°16'1 2.8
2018-Jun-16 14:29N 33°43' W 118°15'2 3.5
2018-Jun-16 13:57N 33°44' W 118°13'2 4.6
2018-Jun-16 13:30N 33°44' W 118°16'1 0.9
2018-Jun-16 12:56N 33°43' W 118°16'1 1.8
2018-Jun-16 12:30N 33°44' W 118°15'1 2.8
2018-Jun-16 12:00N 33°45' W 118°16'1 0.9
2018-Jun-16 11:25N 33°45' W 118°16'0 0.6
2018-Jun-16 11:00N 33°45' W 118°16'0 0.0
2018-Jun-16 10:30N 33°45' W 118°16'1 1.0
2018-Jun-16 09:26N 33°44' W 118°17'2 3.7
2018-Jun-16 08:59N 33°46' W 118°16'1 2.0
2018-Jun-16 08:30N 33°45' W 118°16'1 0.8
2018-Jun-16 07:04N 33°44' W 118°16'0 0.1
2018-Jun-16 06:58N 33°44' W 118°16'1 2.4
2018-Jun-16 06:29N 33°45' W 118°16'1 2.3
2018-Jun-16 06:00N 33°46' W 118°16'2 0.7
2018-Jun-16 03:11N 33°44' W 118°16'0 0.0
2018-Jun-16 03:00N 33°44' W 118°16'0 0.0
2018-Jun-16 02:30N 33°44' W 118°16'0 0.0
2018-Jun-16 01:59N 33°44' W 118°16'0 0.0
2018-Jun-16 01:29N 33°44' W 118°16'0 0.0
2018-Jun-16 01:00N 33°44' W 118°16'0 0.0
2018-Jun-16 00:30N 33°44' W 118°16'0 0.0
2018-Jun-16 00:00N 33°44' W 118°16'0 0.0
2018-Jun-15 23:23N 33°44' W 118°16'0 0.0
2018-Jun-15 23:00N 33°44' W 118°16'0 0.0
2018-Jun-15 22:08N 33°44' W 118°16'0 0.0
2018-Jun-15 21:58N 33°44' W 118°16'0 0.0
2018-Jun-15 21:30N 33°44' W 118°16'0 0.0
2018-Jun-15 20:58N 33°44' W 118°16'0 0.0
2018-Jun-15 20:30N 33°44' W 118°16'0 0.0
2018-Jun-15 19:57N 33°44' W 118°16'0 0.0
2018-Jun-15 19:29N 33°44' W 118°16'0 0.0
2018-Jun-15 19:00N 33°44' W 118°16'0 0.0
2018-Jun-15 18:30N 33°44' W 118°16'0 0.0
2018-Jun-15 17:53N 33°44' W 118°16'0 0.0
2018-Jun-15 17:29N 33°44' W 118°16'0 0.0
2018-Jun-15 17:00N 33°44' W 118°16'0 0.0
2018-Jun-15 14:55N 33°44' W 118°16'0 0.0
2018-Jun-15 14:30N 33°44' W 118°16'0 0.0
2018-Jun-15 14:00N 33°44' W 118°16'0 0.0
2018-Jun-15 13:30N 33°44' W 118°16'1 2.0
2018-Jun-15 12:57N 33°45' W 118°16'0 1.0
2018-Jun-15 12:30N 33°45' W 118°16'0 0.1
2018-Jun-15 12:00N 33°45' W 118°16'1 0.5
2018-Jun-15 08:54N 33°44' W 118°16'0 0.0
2018-Jun-15 03:20N 33°44' W 118°16'0 0.0
2018-Jun-15 02:54N 33°44' W 118°16'0 0.0
2018-Jun-15 02:30N 33°44' W 118°16'0 0.0
2018-Jun-15 02:00N 33°44' W 118°16'0 0.0
2018-Jun-15 01:30N 33°44' W 118°16'0 0.0
2018-Jun-15 01:00N 33°44' W 118°16'0 0.2
2018-Jun-15 00:24N 33°44' W 118°16'1 2.7
2018-Jun-15 00:00N 33°45' W 118°17'1 2.7
2018-Jun-14 23:30N 33°46' W 118°16'2 0.1
2018-Jun-14 05:09N 33°44' W 118°16'0 0.0
2018-Jun-14 04:40N 33°44' W 118°16'1 3.0
2018-Jun-14 04:20N 33°43' W 118°15'3 9.7
2018-Jun-14 04:00N 33°44' W 118°11'0 0.8
2018-Jun-14 03:31N 33°44' W 118°12'2 4.5
2018-Jun-14 03:00N 33°46' W 118°13'1 1.3
2018-Jun-14 02:28N 33°46' W 118°13'0 0.0
2018-Jun-14 02:00N 33°46' W 118°13'2 4.3
2018-Jun-14 01:30N 33°45' W 118°12'1 1.3
2018-Jun-14 00:57N 33°44' W 118°13'3 6.8
2018-Jun-14 00:29N 33°44' W 118°16'2 4.0
2018-Jun-14 00:00N 33°46' W 118°16'0 0.0
2018-Jun-13 23:30N 33°46' W 118°16'0 0.0
2018-Jun-13 23:00N 33°46' W 118°16'1 2.8
2018-Jun-13 22:30N 33°44' W 118°17'3 5.9
2018-Jun-13 21:58N 33°44' W 118°13'0 1.0
2018-Jun-13 21:30N 33°44' W 118°12'4 5.5
2018-Jun-13 20:52N 33°44' W 118°17'1 3.7
2018-Jun-13 20:30N 33°46' W 118°16'2 3.4
2018-Jun-13 20:00N 33°44' W 118°16'0 0.0
2018-Jun-13 18:08N 33°44' W 118°16'0 0.1
2018-Jun-13 18:00N 33°44' W 118°16'0 0.0
2018-Jun-13 17:17N 33°44' W 118°16'0 0.0
2018-Jun-13 16:45N 33°44' W 118°16'0 0.0
2018-Jun-13 16:29N 33°44' W 118°16'0 0.0
2018-Jun-13 15:56N 33°44' W 118°16'0 0.0
2018-Jun-13 15:30N 33°44' W 118°16'0 0.0
2018-Jun-13 15:00N 33°44' W 118°16'0 0.0
2018-Jun-13 14:30N 33°44' W 118°16'2 3.3
2018-Jun-13 13:52N 33°44' W 118°13'1 1.8
2018-Jun-13 13:16N 33°45' W 118°13'1 2.9
2018-Jun-13 13:00N 33°45' W 118°13'1 2.7
2018-Jun-13 12:29N 33°44' W 118°12'0 0.2
2018-Jun-13 12:00N 33°44' W 118°12'1 1.7
2018-Jun-13 11:30N 33°44' W 118°12'2 4.2
2018-Jun-13 11:00N 33°46' W 118°13'0 0.6
2018-Jun-13 10:30N 33°46' W 118°13'0 0.1
2018-Jun-13 09:54N 33°46' W 118°13'0 0.0
2018-Jun-13 09:30N 33°46' W 118°13'0 0.0
2018-Jun-13 08:57N 33°46' W 118°13'0 0.0
2018-Jun-13 08:30N 33°46' W 118°13'0 0.0
2018-Jun-13 08:00N 33°46' W 118°13'4 2.2
2018-Jun-13 06:14N 33°43' W 118°15'3 9.2
2018-Jun-13 05:55N 33°45' W 118°13'0 0.0
2018-Jun-13 05:29N 33°45' W 118°13'1 1.4
2018-Jun-13 05:00N 33°45' W 118°13'1 1.6
2018-Jun-13 04:29N 33°44' W 118°13'2 4.3
2018-Jun-13 03:59N 33°44' W 118°10'2 3.1
2018-Jun-13 03:30N 33°44' W 118°12'3 5.3
2018-Jun-13 03:00N 33°46' W 118°13'1 1.3
2018-Jun-13 02:30N 33°47' W 118°13'0 0.7
2018-Jun-13 02:00N 33°46' W 118°13'0 0.0
2018-Jun-13 01:30N 33°46' W 118°13'0 0.1
2018-Jun-13 01:00N 33°46' W 118°13'1 2.1
2018-Jun-13 00:30N 33°45' W 118°13'2 4.6
2018-Jun-13 00:00N 33°44' W 118°11'3 6.4
2018-Jun-12 23:30N 33°46' W 118°13'0 0.0
2018-Jun-12 23:00N 33°46' W 118°13'1 1.6
2018-Jun-12 22:30N 33°46' W 118°13'2 3.6
2018-Jun-12 22:00N 33°44' W 118°12'3 5.8
2018-Jun-12 21:30N 33°42' W 118°10'0 0.4
2018-Jun-12 21:00N 33°42' W 118°10'2 4.0
2018-Jun-12 20:30N 33°42' W 118°12'4 6.9
2018-Jun-12 19:59N 33°44' W 118°16'0 0.0
2018-Jun-12 17:13N 33°44' W 118°16'0 0.1
2018-Jun-12 16:54N 33°44' W 118°16'3 6.5
2018-Jun-12 16:30N 33°44' W 118°12'1 0.8
2018-Jun-12 15:48N 33°45' W 118°13'1 1.9
2018-Jun-12 15:18N 33°44' W 118°14'1 3.1
2018-Jun-12 15:00N 33°45' W 118°13'0 0.0
2018-Jun-12 14:30N 33°45' W 118°13'0 0.0
2018-Jun-12 14:00N 33°45' W 118°13'0 0.0
2018-Jun-12 13:29N 33°45' W 118°13'3 5.4
2018-Jun-12 12:54N 33°44' W 118°16'2 5.0
2018-Jun-12 12:30N 33°46' W 118°16'0 0.4
2018-Jun-12 12:00N 33°45' W 118°17'2 0.3
2018-Jun-12 05:00N 33°44' W 118°16'0 0.0
2018-Jun-12 03:50N 33°44' W 118°16'0 0.0
2018-Jun-12 03:28N 33°44' W 118°16'0 0.0
2018-Jun-12 03:00N 33°44' W 118°16'1 1.1
2018-Jun-12 02:22N 33°44' W 118°17'1 3.1
2018-Jun-12 02:00N 33°45' W 118°16'0 0.2
2018-Jun-12 01:30N 33°45' W 118°16'0 0.4
2018-Jun-12 00:59N 33°45' W 118°16'0 0.0
2018-Jun-12 00:30N 33°45' W 118°16'0 0.0
2018-Jun-11 23:59N 33°45' W 118°16'0 0.0
2018-Jun-11 23:25N 33°45' W 118°16'0 0.2
2018-Jun-11 23:00N 33°45' W 118°16'3 5.4
2018-Jun-11 22:29N 33°43' W 118°15'3 6.0
2018-Jun-11 21:55N 33°46' W 118°13'1 2.8
2018-Jun-11 21:30N 33°45' W 118°13'2 4.7
2018-Jun-11 21:00N 33°44' W 118°16'0 0.0
2018-Jun-11 20:30N 33°44' W 118°16'0 0.0
2018-Jun-11 20:00N 33°44' W 118°16'0 0.0
2018-Jun-11 19:30N 33°44' W 118°16'0 0.0
2018-Jun-11 19:00N 33°44' W 118°16'0 0.0
2018-Jun-11 18:30N 33°44' W 118°16'0 0.0
2018-Jun-11 18:00N 33°44' W 118°16'0 0.0
2018-Jun-11 17:30N 33°44' W 118°16'0 0.0
2018-Jun-11 17:00N 33°44' W 118°16'2 3.9
2018-Jun-11 16:27N 33°44' W 118°13'2 3.4
2018-Jun-11 16:00N 33°45' W 118°13'1 2.8
2018-Jun-11 15:30N 33°46' W 118°13'0 0.1
2018-Jun-11 15:00N 33°46' W 118°13'3 5.6
2018-Jun-11 14:30N 33°46' W 118°16'0 0.8
2018-Jun-11 14:00N 33°45' W 118°17'1 2.9
2018-Jun-11 13:30N 33°44' W 118°17'0 0.1
2018-Jun-11 11:27N 33°44' W 118°17'2 3.7
2018-Jun-11 11:00N 33°46' W 118°16'0 0.1
2018-Jun-11 09:44N 33°46' W 118°16'1 0.7
2018-Jun-11 08:50N 33°45' W 118°16'2 4.3
2018-Jun-11 08:28N 33°44' W 118°16'1 0.4
2018-Jun-11 06:55N 33°44' W 118°16'1 0.5
2018-Jun-11 05:22N 33°43' W 118°16'3 8.5
2018-Jun-11 05:00N 33°45' W 118°12'1 1.5
2018-Jun-11 04:30N 33°44' W 118°13'3 3.8
2018-Jun-11 03:49N 33°44' W 118°16'0 0.0
2018-Jun-11 03:29N 33°44' W 118°16'0 0.1
2018-Jun-11 02:47N 33°44' W 118°16'1 1.9
2018-Jun-11 02:18N 33°44' W 118°17'1 4.6
2018-Jun-11 02:00N 33°45' W 118°16'0 0.0
2018-Jun-11 01:30N 33°45' W 118°16'1 2.3
2018-Jun-11 00:54N 33°46' W 118°14'1 3.3
2018-Jun-11 00:31N 33°45' W 118°13'0 0.9
2018-Jun-10 23:59N 33°45' W 118°13'0 0.7
2018-Jun-10 23:28N 33°45' W 118°13'0 0.0
2018-Jun-10 22:58N 33°45' W 118°13'0 0.0
2018-Jun-10 22:20N 33°45' W 118°13'0 0.0
2018-Jun-10 22:00N 33°45' W 118°13'1 1.9
2018-Jun-10 21:26N 33°44' W 118°13'2 0.5
2018-Jun-10 16:45N 33°44' W 118°16'1 2.2
2018-Jun-10 16:29N 33°43' W 118°16'3 5.4
2018-Jun-10 16:00N 33°46' W 118°16'1 2.5
2018-Jun-10 15:30N 33°45' W 118°16'1 2.3
2018-Jun-10 15:00N 33°44' W 118°16'1 1.3
2018-Jun-10 14:21N 33°44' W 118°17'1 1.1
2018-Jun-10 13:30N 33°45' W 118°16'3 0.7
2018-Jun-10 09:50N 33°45' W 118°13'0 0.0
2018-Jun-10 09:30N 33°45' W 118°13'0 0.0
2018-Jun-10 09:00N 33°45' W 118°13'0 0.0
2018-Jun-10 08:30N 33°45' W 118°13'0 0.0
2018-Jun-10 07:28N 33°45' W 118°13'3 1.8
2018-Jun-10 05:53N 33°45' W 118°16'0 0.6
2018-Jun-10 05:21N 33°45' W 118°16'0 1.1
2018-Jun-10 05:00N 33°46' W 118°16'2 1.0
2018-Jun-10 03:06N 33°44' W 118°16'0 0.0
2018-Jun-10 03:00N 33°44' W 118°16'2 3.7
2018-Jun-10 02:26N 33°43' W 118°13'3 6.5
2018-Jun-10 02:00N 33°44' W 118°10'5 5.8
2018-Jun-10 01:09N 33°43' W 118°16'0 1.4
2018-Jun-10 00:50N 33°44' W 118°16'1 2.8
2018-Jun-10 00:30N 33°44' W 118°17'2 3.3
2018-Jun-10 00:00N 33°46' W 118°16'0 0.5
2018-Jun-09 23:30N 33°46' W 118°16'0 0.0
2018-Jun-09 23:00N 33°46' W 118°16'0 0.0
2018-Jun-09 22:30N 33°46' W 118°16'0 0.0
2018-Jun-09 22:00N 33°46' W 118°16'1 1.3
2018-Jun-09 21:30N 33°45' W 118°16'0 0.7
2018-Jun-09 21:00N 33°45' W 118°16'1 0.5
2018-Jun-09 18:17N 33°44' W 118°16'0 0.0
2018-Jun-09 17:43N 33°44' W 118°16'0 0.0
2018-Jun-09 17:29N 33°44' W 118°16'0 0.0
2018-Jun-09 16:59N 33°44' W 118°16'0 0.3
2018-Jun-09 16:23N 33°44' W 118°15'1 3.6
2018-Jun-09 16:00N 33°45' W 118°16'1 2.1
2018-Jun-09 15:30N 33°46' W 118°16'2 1.2
2018-Jun-09 13:47N 33°46' W 118°13'3 1.4
2018-Jun-09 11:31N 33°45' W 118°16'0 5.6
2018-Jun-09 11:30N 33°45' W 118°16'1 0.1
2018-Jun-09 03:09N 33°44' W 118°16'0 0.0
2018-Jun-09 02:59N 33°44' W 118°16'0 0.0
2018-Jun-09 02:30N 33°44' W 118°16'0 0.0
2018-Jun-09 01:59N 33°44' W 118°16'0 0.0
2018-Jun-09 01:30N 33°44' W 118°16'0 0.0
2018-Jun-09 01:00N 33°44' W 118°16'0 0.0
2018-Jun-09 00:28N 33°44' W 118°16'0 0.0
2018-Jun-08 23:58N 33°44' W 118°16'1 1.7
2018-Jun-08 23:25N 33°44' W 118°17'1 3.4
2018-Jun-08 23:00N 33°46' W 118°17'2 1.5
2018-Jun-08 21:35N 33°44' W 118°16'0 0.1
2018-Jun-08 20:38N 33°44' W 118°16'0 0.0
2018-Jun-08 20:29N 33°44' W 118°16'0 0.0
2018-Jun-08 20:00N 33°44' W 118°16'0 0.0
2018-Jun-08 19:25N 33°44' W 118°16'0 0.0
2018-Jun-08 19:00N 33°44' W 118°16'0 0.0
2018-Jun-08 15:21N 33°44' W 118°16'0 0.0
2018-Jun-08 15:00N 33°44' W 118°16'0 0.0
2018-Jun-08 14:29N 33°44' W 118°16'0 0.0
2018-Jun-08 14:00N 33°44' W 118°16'0 0.0
2018-Jun-08 13:29N 33°44' W 118°16'0 0.0
2018-Jun-08 13:00N 33°44' W 118°16'  

Dump ship's entire track history